sensor_id;sensor_type;location;lat;lon;timestamp;P1;durP1;ratioP1;P2;durP2;ratioP2
75417;SDS011;63997;52.112;5.420;2023-02-21T00:02:11;32.67;;;15.27;;
75417;SDS011;63997;52.112;5.420;2023-02-21T00:04:56;32.67;;;15.52;;
75417;SDS011;63997;52.112;5.420;2023-02-21T00:07:42;31.75;;;15.25;;
75417;SDS011;63997;52.112;5.420;2023-02-21T00:10:27;31.67;;;15.25;;
75417;SDS011;63997;52.112;5.420;2023-02-21T00:13:12;33.77;;;13.60;;
75417;SDS011;63997;52.112;5.420;2023-02-21T00:15:57;30.52;;;14.30;;
75417;SDS011;63997;52.112;5.420;2023-02-21T00:18:42;32.00;;;14.65;;
75417;SDS011;63997;52.112;5.420;2023-02-21T00:21:27;30.75;;;14.15;;
75417;SDS011;63997;52.112;5.420;2023-02-21T00:24:13;28.35;;;12.77;;
75417;SDS011;63997;52.112;5.420;2023-02-21T00:27:00;32.13;;;14.40;;
75417;SDS011;63997;52.112;5.420;2023-02-21T00:29:46;34.80;;;14.45;;
75417;SDS011;63997;52.112;5.420;2023-02-21T00:32:32;31.55;;;14.68;;
75417;SDS011;63997;52.112;5.420;2023-02-21T00:35:17;39.03;;;15.27;;
75417;SDS011;63997;52.112;5.420;2023-02-21T00:38:02;29.27;;;13.43;;
75417;SDS011;63997;52.112;5.420;2023-02-21T00:40:50;38.17;;;14.73;;
75417;SDS011;63997;52.112;5.420;2023-02-21T00:43:35;30.48;;;14.98;;
75417;SDS011;63997;52.112;5.420;2023-02-21T00:46:20;38.92;;;14.85;;
75417;SDS011;63997;52.112;5.420;2023-02-21T00:49:05;30.80;;;14.95;;
75417;SDS011;63997;52.112;5.420;2023-02-21T00:51:50;33.40;;;14.43;;
75417;SDS011;63997;52.112;5.420;2023-02-21T00:54:35;33.27;;;14.67;;
75417;SDS011;63997;52.112;5.420;2023-02-21T00:57:21;29.75;;;14.60;;
75417;SDS011;63997;52.112;5.420;2023-02-21T01:00:08;34.60;;;14.55;;
75417;SDS011;63997;52.112;5.420;2023-02-21T01:02:58;31.02;;;14.10;;
75417;SDS011;63997;52.112;5.420;2023-02-21T01:05:43;34.45;;;14.50;;
75417;SDS011;63997;52.112;5.420;2023-02-21T01:08:28;34.27;;;14.10;;
75417;SDS011;63997;52.112;5.420;2023-02-21T01:11:14;34.35;;;13.60;;
75417;SDS011;63997;52.112;5.420;2023-02-21T01:14:01;37.92;;;14.68;;
75417;SDS011;63997;52.112;5.420;2023-02-21T01:16:46;36.70;;;14.93;;
75417;SDS011;63997;52.112;5.420;2023-02-21T01:19:38;31.33;;;14.73;;
75417;SDS011;63997;52.112;5.420;2023-02-21T01:22:23;36.03;;;13.80;;
75417;SDS011;63997;52.112;5.420;2023-02-21T01:25:10;42.92;;;14.82;;
75417;SDS011;63997;52.112;5.420;2023-02-21T01:27:56;39.20;;;15.18;;
75417;SDS011;63997;52.112;5.420;2023-02-21T01:30:43;38.10;;;16.50;;
75417;SDS011;63997;52.112;5.420;2023-02-21T01:33:27;38.45;;;16.13;;
75417;SDS011;63997;52.112;5.420;2023-02-21T01:36:12;43.97;;;16.03;;
75417;SDS011;63997;52.112;5.420;2023-02-21T01:38:58;37.33;;;15.70;;
75417;SDS011;63997;52.112;5.420;2023-02-21T01:41:43;36.97;;;14.50;;
75417;SDS011;63997;52.112;5.420;2023-02-21T01:47:12;37.53;;;16.45;;
75417;SDS011;63997;52.112;5.420;2023-02-21T01:50:01;39.63;;;16.13;;
75417;SDS011;63997;52.112;5.420;2023-02-21T01:52:48;38.58;;;15.68;;
75417;SDS011;63997;52.112;5.420;2023-02-21T01:55:34;39.17;;;14.90;;
75417;SDS011;63997;52.112;5.420;2023-02-21T01:58:23;39.55;;;15.70;;
75417;SDS011;63997;52.112;5.420;2023-02-21T02:01:11;39.15;;;16.05;;
75417;SDS011;63997;52.112;5.420;2023-02-21T02:04:05;34.13;;;16.47;;
75417;SDS011;63997;52.112;5.420;2023-02-21T02:06:50;35.05;;;15.65;;
75417;SDS011;63997;52.112;5.420;2023-02-21T02:09:35;43.38;;;17.05;;
75417;SDS011;63997;52.112;5.420;2023-02-21T02:12:31;37.83;;;17.35;;
75417;SDS011;63997;52.112;5.420;2023-02-21T02:17:52;41.20;;;16.17;;
75417;SDS011;63997;52.112;5.420;2023-02-21T02:23:08;38.78;;;17.98;;
75417;SDS011;63997;52.112;5.420;2023-02-21T02:25:59;40.03;;;16.73;;
75417;SDS011;63997;52.112;5.420;2023-02-21T02:28:53;41.33;;;16.38;;
75417;SDS011;63997;52.112;5.420;2023-02-21T02:31:27;39.93;;;16.33;;
75417;SDS011;63997;52.112;5.420;2023-02-21T02:45:14;42.53;;;18.03;;
75417;SDS011;63997;52.112;5.420;2023-02-21T02:47:49;43.13;;;18.55;;
75417;SDS011;63997;52.112;5.420;2023-02-21T02:50:20;42.83;;;18.75;;
75417;SDS011;63997;52.112;5.420;2023-02-21T02:52:50;40.63;;;17.98;;
75417;SDS011;63997;52.112;5.420;2023-02-21T02:55:23;46.53;;;19.70;;
75417;SDS011;63997;52.112;5.420;2023-02-21T02:57:57;40.53;;;18.17;;
75417;SDS011;63997;52.112;5.420;2023-02-21T03:00:25;53.80;;;20.30;;
75417;SDS011;63997;52.112;5.420;2023-02-21T03:02:56;48.60;;;20.10;;
75417;SDS011;63997;52.112;5.420;2023-02-21T03:10:52;46.70;;;19.47;;
75417;SDS011;63997;52.112;5.420;2023-02-21T03:13:33;49.30;;;19.17;;
75417;SDS011;63997;52.112;5.420;2023-02-21T03:16:09;46.60;;;20.42;;
75417;SDS011;63997;52.112;5.420;2023-02-21T03:18:42;47.47;;;19.50;;
75417;SDS011;63997;52.112;5.420;2023-02-21T03:21:15;57.78;;;20.92;;
75417;SDS011;63997;52.112;5.420;2023-02-21T03:23:45;52.93;;;19.93;;
75417;SDS011;63997;52.112;5.420;2023-02-21T03:26:15;52.65;;;20.58;;
75417;SDS011;63997;52.112;5.420;2023-02-21T03:28:42;53.38;;;20.70;;
75417;SDS011;63997;52.112;5.420;2023-02-21T03:31:12;47.47;;;19.15;;
75417;SDS011;63997;52.112;5.420;2023-02-21T03:33:42;51.03;;;20.25;;
75417;SDS011;63997;52.112;5.420;2023-02-21T03:36:10;46.40;;;18.93;;
75417;SDS011;63997;52.112;5.420;2023-02-21T03:38:36;52.15;;;19.45;;
75417;SDS011;63997;52.112;5.420;2023-02-21T03:41:03;53.28;;;21.33;;
75417;SDS011;63997;52.112;5.420;2023-02-21T03:43:31;62.20;;;21.30;;
75417;SDS011;63997;52.112;5.420;2023-02-21T03:45:58;57.42;;;20.95;;
75417;SDS011;63997;52.112;5.420;2023-02-21T03:48:24;49.83;;;20.33;;
75417;SDS011;63997;52.112;5.420;2023-02-21T03:50:57;49.15;;;19.80;;
75417;SDS011;63997;52.112;5.420;2023-02-21T03:53:24;54.85;;;21.15;;
75417;SDS011;63997;52.112;5.420;2023-02-21T03:55:51;45.50;;;19.50;;
75417;SDS011;63997;52.112;5.420;2023-02-21T03:58:20;51.92;;;21.00;;
75417;SDS011;63997;52.112;5.420;2023-02-21T04:00:47;51.97;;;19.97;;
75417;SDS011;63997;52.112;5.420;2023-02-21T04:03:13;53.28;;;22.25;;
75417;SDS011;63997;52.112;5.420;2023-02-21T04:05:40;58.15;;;21.90;;
75417;SDS011;63997;52.112;5.420;2023-02-21T04:08:06;52.10;;;20.80;;
75417;SDS011;63997;52.112;5.420;2023-02-21T04:10:32;47.45;;;19.65;;
75417;SDS011;63997;52.112;5.420;2023-02-21T04:13:12;49.00;;;20.77;;
75417;SDS011;63997;52.112;5.420;2023-02-21T04:15:38;54.03;;;20.77;;
75417;SDS011;63997;52.112;5.420;2023-02-21T04:18:05;58.88;;;21.70;;
75417;SDS011;63997;52.112;5.420;2023-02-21T04:20:31;56.60;;;21.45;;
75417;SDS011;63997;52.112;5.420;2023-02-21T04:22:57;58.15;;;20.65;;
75417;SDS011;63997;52.112;5.420;2023-02-21T04:25:29;54.33;;;21.43;;
75417;SDS011;63997;52.112;5.420;2023-02-21T04:27:55;50.83;;;21.02;;
75417;SDS011;63997;52.112;5.420;2023-02-21T04:30:21;58.72;;;21.98;;
75417;SDS011;63997;52.112;5.420;2023-02-21T04:32:48;56.67;;;21.35;;
75417;SDS011;63997;52.112;5.420;2023-02-21T04:35:14;64.68;;;21.25;;
75417;SDS011;63997;52.112;5.420;2023-02-21T04:37:41;56.63;;;20.93;;
75417;SDS011;63997;52.112;5.420;2023-02-21T04:40:10;51.72;;;18.70;;
75417;SDS011;63997;52.112;5.420;2023-02-21T04:42:37;50.20;;;20.08;;
75417;SDS011;63997;52.112;5.420;2023-02-21T04:45:03;56.45;;;20.30;;
75417;SDS011;63997;52.112;5.420;2023-02-21T04:47:29;62.60;;;21.63;;
75417;SDS011;63997;52.112;5.420;2023-02-21T04:49:56;53.97;;;21.33;;
75417;SDS011;63997;52.112;5.420;2023-02-21T04:52:23;59.33;;;21.52;;
75417;SDS011;63997;52.112;5.420;2023-02-21T04:54:50;54.97;;;21.25;;
75417;SDS011;63997;52.112;5.420;2023-02-21T04:57:16;57.38;;;20.77;;
75417;SDS011;63997;52.112;5.420;2023-02-21T04:59:43;49.22;;;18.73;;
75417;SDS011;63997;52.112;5.420;2023-02-21T05:02:09;57.07;;;21.57;;
75417;SDS011;63997;52.112;5.420;2023-02-21T05:04:35;59.58;;;20.88;;
75417;SDS011;63997;52.112;5.420;2023-02-21T05:07:02;57.58;;;21.13;;
75417;SDS011;63997;52.112;5.420;2023-02-21T05:09:30;55.97;;;22.05;;
75417;SDS011;63997;52.112;5.420;2023-02-21T05:11:57;52.90;;;20.38;;
75417;SDS011;63997;52.112;5.420;2023-02-21T05:14:23;55.00;;;21.17;;
75417;SDS011;63997;52.112;5.420;2023-02-21T05:16:50;56.50;;;19.90;;
75417;SDS011;63997;52.112;5.420;2023-02-21T05:19:19;63.35;;;21.70;;
75417;SDS011;63997;52.112;5.420;2023-02-21T05:21:56;64.10;;;22.00;;
75417;SDS011;63997;52.112;5.420;2023-02-21T05:24:24;57.03;;;21.10;;
75417;SDS011;63997;52.112;5.420;2023-02-21T05:26:52;58.40;;;20.23;;
75417;SDS011;63997;52.112;5.420;2023-02-21T05:29:19;61.50;;;20.35;;
75417;SDS011;63997;52.112;5.420;2023-02-21T05:31:46;57.88;;;21.15;;
75417;SDS011;63997;52.112;5.420;2023-02-21T05:34:13;57.08;;;20.33;;
75417;SDS011;63997;52.112;5.420;2023-02-21T05:36:40;60.35;;;20.42;;
75417;SDS011;63997;52.112;5.420;2023-02-21T05:39:07;61.67;;;21.37;;
75417;SDS011;63997;52.112;5.420;2023-02-21T05:41:34;64.35;;;21.67;;
75417;SDS011;63997;52.112;5.420;2023-02-21T05:44:01;61.83;;;21.83;;
75417;SDS011;63997;52.112;5.420;2023-02-21T05:46:33;60.40;;;22.42;;
75417;SDS011;63997;52.112;5.420;2023-02-21T05:49:00;66.20;;;23.20;;
75417;SDS011;63997;52.112;5.420;2023-02-21T05:51:35;64.57;;;22.27;;
75417;SDS011;63997;52.112;5.420;2023-02-21T05:54:03;59.20;;;21.17;;
75417;SDS011;63997;52.112;5.420;2023-02-21T05:56:38;64.50;;;21.83;;
75417;SDS011;63997;52.112;5.420;2023-02-21T05:59:06;63.53;;;21.55;;
75417;SDS011;63997;52.112;5.420;2023-02-21T06:01:34;62.55;;;23.35;;
75417;SDS011;63997;52.112;5.420;2023-02-21T06:04:00;70.57;;;23.00;;
75417;SDS011;63997;52.112;5.420;2023-02-21T06:06:27;63.55;;;22.58;;
75417;SDS011;63997;52.112;5.420;2023-02-21T06:08:53;61.33;;;23.27;;
75417;SDS011;63997;52.112;5.420;2023-02-21T06:11:23;64.22;;;21.95;;
75417;SDS011;63997;52.112;5.420;2023-02-21T06:13:54;71.88;;;23.02;;
75417;SDS011;63997;52.112;5.420;2023-02-21T06:16:21;71.13;;;22.47;;
75417;SDS011;63997;52.112;5.420;2023-02-21T06:18:54;63.53;;;22.52;;
75417;SDS011;63997;52.112;5.420;2023-02-21T06:21:22;68.10;;;22.95;;
75417;SDS011;63997;52.112;5.420;2023-02-21T06:23:48;66.05;;;22.90;;
75417;SDS011;63997;52.112;5.420;2023-02-21T06:26:15;64.43;;;23.08;;
75417;SDS011;63997;52.112;5.420;2023-02-21T06:28:43;64.87;;;22.87;;
75417;SDS011;63997;52.112;5.420;2023-02-21T06:31:09;70.60;;;23.10;;
75417;SDS011;63997;52.112;5.420;2023-02-21T06:33:36;67.10;;;22.15;;
75417;SDS011;63997;52.112;5.420;2023-02-21T06:36:06;68.20;;;23.45;;
75417;SDS011;63997;52.112;5.420;2023-02-21T06:38:36;62.55;;;22.35;;
75417;SDS011;63997;52.112;5.420;2023-02-21T06:41:05;72.27;;;22.83;;
75417;SDS011;63997;52.112;5.420;2023-02-21T06:43:33;65.32;;;23.33;;
75417;SDS011;63997;52.112;5.420;2023-02-21T06:46:02;70.55;;;23.65;;
75417;SDS011;63997;52.112;5.420;2023-02-21T06:48:30;70.50;;;24.30;;
75417;SDS011;63997;52.112;5.420;2023-02-21T06:50:56;69.78;;;22.33;;
75417;SDS011;63997;52.112;5.420;2023-02-21T06:53:24;70.07;;;24.00;;
75417;SDS011;63997;52.112;5.420;2023-02-21T06:55:50;69.15;;;23.80;;
75417;SDS011;63997;52.112;5.420;2023-02-21T06:58:17;73.00;;;25.00;;
75417;SDS011;63997;52.112;5.420;2023-02-21T07:00:44;71.18;;;25.20;;
75417;SDS011;63997;52.112;5.420;2023-02-21T07:03:10;77.18;;;24.70;;
75417;SDS011;63997;52.112;5.420;2023-02-21T07:05:36;71.70;;;26.17;;
75417;SDS011;63997;52.112;5.420;2023-02-21T07:08:04;74.35;;;25.17;;
75417;SDS011;63997;52.112;5.420;2023-02-21T07:10:30;76.07;;;23.65;;
75417;SDS011;63997;52.112;5.420;2023-02-21T07:12:57;71.60;;;23.90;;
75417;SDS011;63997;52.112;5.420;2023-02-21T07:15:23;75.30;;;24.67;;
75417;SDS011;63997;52.112;5.420;2023-02-21T07:17:50;79.33;;;25.37;;
75417;SDS011;63997;52.112;5.420;2023-02-21T07:20:16;80.45;;;23.50;;
75417;SDS011;63997;52.112;5.420;2023-02-21T07:22:43;75.25;;;24.08;;
75417;SDS011;63997;52.112;5.420;2023-02-21T07:25:16;74.22;;;24.13;;
75417;SDS011;63997;52.112;5.420;2023-02-21T07:27:45;74.10;;;23.88;;
75417;SDS011;63997;52.112;5.420;2023-02-21T07:30:13;75.63;;;25.10;;
75417;SDS011;63997;52.112;5.420;2023-02-21T07:32:40;74.60;;;25.95;;
75417;SDS011;63997;52.112;5.420;2023-02-21T07:35:06;75.35;;;23.00;;
75417;SDS011;63997;52.112;5.420;2023-02-21T07:37:33;70.47;;;22.20;;
75417;SDS011;63997;52.112;5.420;2023-02-21T07:39:59;80.18;;;24.63;;
75417;SDS011;63997;52.112;5.420;2023-02-21T07:42:26;78.27;;;24.73;;
75417;SDS011;63997;52.112;5.420;2023-02-21T07:44:56;89.32;;;25.17;;
75417;SDS011;63997;52.112;5.420;2023-02-21T07:47:23;79.45;;;24.48;;
75417;SDS011;63997;52.112;5.420;2023-02-21T07:49:51;88.00;;;26.83;;
75417;SDS011;63997;52.112;5.420;2023-02-21T07:52:19;84.93;;;27.02;;
75417;SDS011;63997;52.112;5.420;2023-02-21T07:54:47;85.93;;;24.87;;
75417;SDS011;63997;52.112;5.420;2023-02-21T07:57:14;94.38;;;26.65;;
75417;SDS011;63997;52.112;5.420;2023-02-21T07:59:41;76.97;;;23.98;;
75417;SDS011;63997;52.112;5.420;2023-02-21T08:02:09;75.97;;;24.70;;
75417;SDS011;63997;52.112;5.420;2023-02-21T08:04:36;87.88;;;27.65;;
75417;SDS011;63997;52.112;5.420;2023-02-21T08:07:03;95.23;;;25.63;;
75417;SDS011;63997;52.112;5.420;2023-02-21T08:09:30;83.95;;;27.63;;
75417;SDS011;63997;52.112;5.420;2023-02-21T08:11:57;94.20;;;25.65;;
75417;SDS011;63997;52.112;5.420;2023-02-21T08:14:23;92.03;;;26.95;;
75417;SDS011;63997;52.112;5.420;2023-02-21T08:16:50;85.53;;;26.73;;
75417;SDS011;63997;52.112;5.420;2023-02-21T08:19:16;83.83;;;25.73;;
75417;SDS011;63997;52.112;5.420;2023-02-21T08:21:46;91.55;;;25.83;;
75417;SDS011;63997;52.112;5.420;2023-02-21T08:24:13;83.10;;;26.83;;
75417;SDS011;63997;52.112;5.420;2023-02-21T08:26:41;86.88;;;25.58;;
75417;SDS011;63997;52.112;5.420;2023-02-21T08:29:10;80.78;;;25.23;;
75417;SDS011;63997;52.112;5.420;2023-02-21T08:31:43;82.93;;;23.27;;
75417;SDS011;63997;52.112;5.420;2023-02-21T08:34:10;81.35;;;23.60;;
75417;SDS011;63997;52.112;5.420;2023-02-21T08:36:38;82.40;;;24.60;;
75417;SDS011;63997;52.112;5.420;2023-02-21T08:39:06;80.65;;;23.42;;
75417;SDS011;63997;52.112;5.420;2023-02-21T08:41:34;76.68;;;24.02;;
75417;SDS011;63997;52.112;5.420;2023-02-21T08:44:05;73.70;;;22.30;;
75417;SDS011;63997;52.112;5.420;2023-02-21T08:46:32;69.78;;;23.13;;
75417;SDS011;63997;52.112;5.420;2023-02-21T08:48:59;75.22;;;23.38;;
75417;SDS011;63997;52.112;5.420;2023-02-21T08:51:26;66.43;;;21.10;;
75417;SDS011;63997;52.112;5.420;2023-02-21T08:53:54;69.95;;;21.42;;
75417;SDS011;63997;52.112;5.420;2023-02-21T08:56:21;70.50;;;22.07;;
75417;SDS011;63997;52.112;5.420;2023-02-21T08:58:50;64.65;;;20.30;;
75417;SDS011;63997;52.112;5.420;2023-02-21T09:01:19;69.60;;;20.50;;
75417;SDS011;63997;52.112;5.420;2023-02-21T09:03:47;54.25;;;19.38;;
75417;SDS011;63997;52.112;5.420;2023-02-21T09:06:14;55.15;;;18.92;;
75417;SDS011;63997;52.112;5.420;2023-02-21T09:08:42;56.00;;;18.10;;
75417;SDS011;63997;52.112;5.420;2023-02-21T09:11:08;60.65;;;19.02;;
75417;SDS011;63997;52.112;5.420;2023-02-21T09:13:35;52.63;;;18.80;;
75417;SDS011;63997;52.112;5.420;2023-02-21T09:16:01;58.95;;;19.25;;
75417;SDS011;63997;52.112;5.420;2023-02-21T09:18:29;56.20;;;17.88;;
75417;SDS011;63997;52.112;5.420;2023-02-21T09:20:56;60.70;;;18.87;;
75417;SDS011;63997;52.112;5.420;2023-02-21T09:23:24;63.83;;;20.40;;
75417;SDS011;63997;52.112;5.420;2023-02-21T09:25:51;59.40;;;20.52;;
75417;SDS011;63997;52.112;5.420;2023-02-21T09:28:18;55.97;;;17.02;;
75417;SDS011;63997;52.112;5.420;2023-02-21T09:30:45;62.03;;;18.58;;
75417;SDS011;63997;52.112;5.420;2023-02-21T09:33:13;51.83;;;18.27;;
75417;SDS011;63997;52.112;5.420;2023-02-21T09:35:40;57.97;;;20.15;;
75417;SDS011;63997;52.112;5.420;2023-02-21T09:38:07;54.15;;;18.20;;
75417;SDS011;63997;52.112;5.420;2023-02-21T09:43:05;52.70;;;18.67;;
75417;SDS011;63997;52.112;5.420;2023-02-21T09:45:47;50.73;;;17.03;;
75417;SDS011;63997;52.112;5.420;2023-02-21T09:48:17;60.25;;;18.73;;
75417;SDS011;63997;52.112;5.420;2023-02-21T09:50:47;56.60;;;19.23;;
75417;SDS011;63997;52.112;5.420;2023-02-21T09:53:23;49.67;;;17.10;;
75417;SDS011;63997;52.112;5.420;2023-02-21T09:55:53;52.30;;;16.92;;
75417;SDS011;63997;52.112;5.420;2023-02-21T09:58:25;54.83;;;17.43;;
75417;SDS011;63997;52.112;5.420;2023-02-21T10:00:51;54.67;;;16.92;;
75417;SDS011;63997;52.112;5.420;2023-02-21T10:03:37;61.53;;;18.20;;
75417;SDS011;63997;52.112;5.420;2023-02-21T10:11:33;52.90;;;17.00;;
75417;SDS011;63997;52.112;5.420;2023-02-21T10:19:57;56.70;;;18.23;;
75417;SDS011;63997;52.112;5.420;2023-02-21T10:22:33;54.63;;;18.60;;
75417;SDS011;63997;52.112;5.420;2023-02-21T10:25:17;51.53;;;17.63;;
75417;SDS011;63997;52.112;5.420;2023-02-21T10:27:59;51.10;;;17.30;;
75417;SDS011;63997;52.112;5.420;2023-02-21T10:30:31;55.08;;;17.50;;
75417;SDS011;63997;52.112;5.420;2023-02-21T10:33:03;60.85;;;18.98;;
75417;SDS011;63997;52.112;5.420;2023-02-21T10:35:40;55.55;;;17.50;;
75417;SDS011;63997;52.112;5.420;2023-02-21T10:38:08;57.57;;;17.87;;
75417;SDS011;63997;52.112;5.420;2023-02-21T10:40:39;57.60;;;18.90;;
75417;SDS011;63997;52.112;5.420;2023-02-21T10:43:20;53.30;;;18.73;;
75417;SDS011;63997;52.112;5.420;2023-02-21T10:46:02;57.15;;;18.95;;
75417;SDS011;63997;52.112;5.420;2023-02-21T10:48:34;56.42;;;17.70;;
75417;SDS011;63997;52.112;5.420;2023-02-21T10:51:06;56.23;;;17.80;;
75417;SDS011;63997;52.112;5.420;2023-02-21T10:58:43;53.47;;;19.02;;
75417;SDS011;63997;52.112;5.420;2023-02-21T11:03:51;61.53;;;19.00;;
75417;SDS011;63997;52.112;5.420;2023-02-21T11:06:21;57.08;;;18.98;;
75417;SDS011;63997;52.112;5.420;2023-02-21T11:08:53;59.47;;;20.23;;
75417;SDS011;63997;52.112;5.420;2023-02-21T11:11:39;48.40;;;17.95;;
75417;SDS011;63997;52.112;5.420;2023-02-21T11:14:18;55.33;;;18.55;;
75417;SDS011;63997;52.112;5.420;2023-02-21T11:16:46;59.73;;;19.37;;
75417;SDS011;63997;52.112;5.420;2023-02-21T11:19:40;57.58;;;18.73;;
75417;SDS011;63997;52.112;5.420;2023-02-21T11:22:11;58.65;;;19.75;;
75417;SDS011;63997;52.112;5.420;2023-02-21T11:24:56;61.38;;;19.90;;
75417;SDS011;63997;52.112;5.420;2023-02-21T11:27:26;60.83;;;20.50;;
75417;SDS011;63997;52.112;5.420;2023-02-21T11:29:53;55.20;;;18.37;;
75417;SDS011;63997;52.112;5.420;2023-02-21T11:32:34;67.03;;;20.02;;
75417;SDS011;63997;52.112;5.420;2023-02-21T11:37:49;71.10;;;22.13;;
75417;SDS011;63997;52.112;5.420;2023-02-21T11:40:22;66.68;;;20.63;;
75417;SDS011;63997;52.112;5.420;2023-02-21T11:43:40;60.23;;;21.80;;
75417;SDS011;63997;52.112;5.420;2023-02-21T11:48:56;62.80;;;19.70;;
75417;SDS011;63997;52.112;5.420;2023-02-21T11:51:30;62.05;;;20.95;;
75417;SDS011;63997;52.112;5.420;2023-02-21T11:54:02;67.32;;;19.92;;
75417;SDS011;63997;52.112;5.420;2023-02-21T11:59:33;64.60;;;19.42;;
75417;SDS011;63997;52.112;5.420;2023-02-21T12:02:34;57.20;;;18.17;;
75417;SDS011;63997;52.112;5.420;2023-02-21T12:10:44;57.00;;;17.27;;
75417;SDS011;63997;52.112;5.420;2023-02-21T12:16:13;67.38;;;20.30;;
75417;SDS011;63997;52.112;5.420;2023-02-21T12:19:03;68.72;;;19.25;;
75417;SDS011;63997;52.112;5.420;2023-02-21T12:25:09;64.57;;;20.57;;
75417;SDS011;63997;52.112;5.420;2023-02-21T12:39:09;59.30;;;17.20;;
75417;SDS011;63997;52.112;5.420;2023-02-21T12:47:17;56.03;;;16.77;;
75417;SDS011;63997;52.112;5.420;2023-02-21T12:52:40;43.03;;;15.30;;
75417;SDS011;63997;52.112;5.420;2023-02-21T12:55:22;44.45;;;14.45;;
75417;SDS011;63997;52.112;5.420;2023-02-21T12:57:55;46.30;;;15.30;;
75417;SDS011;63997;52.112;5.420;2023-02-21T13:00:37;47.67;;;15.05;;
75417;SDS011;63997;52.112;5.420;2023-02-21T13:05:47;39.30;;;12.33;;
75417;SDS011;63997;52.112;5.420;2023-02-21T13:08:20;44.67;;;13.48;;
75417;SDS011;63997;52.112;5.420;2023-02-21T13:11:11;34.58;;;13.00;;
75417;SDS011;63997;52.112;5.420;2023-02-21T13:13:42;33.53;;;13.50;;
75417;SDS011;63997;52.112;5.420;2023-02-21T13:16:09;36.88;;;11.30;;
75417;SDS011;63997;52.112;5.420;2023-02-21T13:18:39;27.10;;;9.77;;
75417;SDS011;63997;52.112;5.420;2023-02-21T13:29:45;22.40;;;8.05;;
75417;SDS011;63997;52.112;5.420;2023-02-21T13:32:16;19.23;;;7.47;;
75417;SDS011;63997;52.112;5.420;2023-02-21T13:34:47;16.98;;;6.65;;
75417;SDS011;63997;52.112;5.420;2023-02-21T13:37:21;15.63;;;6.95;;
75417;SDS011;63997;52.112;5.420;2023-02-21T13:39:50;15.07;;;6.75;;
75417;SDS011;63997;52.112;5.420;2023-02-21T13:42:27;15.75;;;6.32;;
75417;SDS011;63997;52.112;5.420;2023-02-21T13:45:17;13.47;;;6.20;;
75417;SDS011;63997;52.112;5.420;2023-02-21T13:55:35;17.80;;;7.78;;
75417;SDS011;63997;52.112;5.420;2023-02-21T14:06:14;17.42;;;7.45;;
75417;SDS011;63997;52.112;5.420;2023-02-21T14:10:47;22.17;;;7.17;;
75417;SDS011;63997;52.112;5.420;2023-02-21T14:18:44;23.67;;;9.02;;
75417;SDS011;63997;52.112;5.420;2023-02-21T14:21:16;23.25;;;9.43;;
75417;SDS011;63997;52.112;5.420;2023-02-21T14:23:51;23.37;;;10.40;;
75417;SDS011;63997;52.112;5.420;2023-02-21T14:26:33;19.15;;;7.78;;
75417;SDS011;63997;52.112;5.420;2023-02-21T14:39:50;24.83;;;8.90;;
75417;SDS011;63997;52.112;5.420;2023-02-21T14:42:35;23.00;;;9.02;;
75417;SDS011;63997;52.112;5.420;2023-02-21T15:00:16;21.30;;;7.82;;
75417;SDS011;63997;52.112;5.420;2023-02-21T15:03:04;17.33;;;6.93;;
75417;SDS011;63997;52.112;5.420;2023-02-21T15:10:47;14.70;;;7.20;;
75417;SDS011;63997;52.112;5.420;2023-02-21T15:15:54;19.88;;;8.13;;
75417;SDS011;63997;52.112;5.420;2023-02-21T15:18:27;13.07;;;6.43;;
75417;SDS011;63997;52.112;5.420;2023-02-21T15:23:37;13.18;;;5.80;;
75417;SDS011;63997;52.112;5.420;2023-02-21T15:26:24;11.80;;;6.03;;
75417;SDS011;63997;52.112;5.420;2023-02-21T15:29:03;10.75;;;5.38;;
75417;SDS011;63997;52.112;5.420;2023-02-21T15:31:38;10.37;;;4.83;;
75417;SDS011;63997;52.112;5.420;2023-02-21T15:37:19;8.55;;;5.00;;
75417;SDS011;63997;52.112;5.420;2023-02-21T15:39:53;7.28;;;3.90;;
75417;SDS011;63997;52.112;5.420;2023-02-21T15:42:24;9.38;;;4.63;;
75417;SDS011;63997;52.112;5.420;2023-02-21T15:44:55;8.77;;;4.37;;
75417;SDS011;63997;52.112;5.420;2023-02-21T15:47:25;8.02;;;4.13;;
75417;SDS011;63997;52.112;5.420;2023-02-21T15:52:44;8.27;;;5.15;;
75417;SDS011;63997;52.112;5.420;2023-02-21T15:55:20;8.43;;;4.25;;
75417;SDS011;63997;52.112;5.420;2023-02-21T15:58:00;10.57;;;4.40;;
75417;SDS011;63997;52.112;5.420;2023-02-21T16:03:38;7.22;;;4.15;;
75417;SDS011;63997;52.112;5.420;2023-02-21T16:06:12;6.75;;;3.42;;
75417;SDS011;63997;52.112;5.420;2023-02-21T16:08:49;8.88;;;4.43;;
75417;SDS011;63997;52.112;5.420;2023-02-21T16:11:17;6.50;;;3.93;;
75417;SDS011;63997;52.112;5.420;2023-02-21T16:13:44;8.63;;;4.25;;
75417;SDS011;63997;52.112;5.420;2023-02-21T16:16:11;10.55;;;4.43;;
75417;SDS011;63997;52.112;5.420;2023-02-21T16:18:38;10.10;;;4.65;;
75417;SDS011;63997;52.112;5.420;2023-02-21T16:21:05;7.35;;;4.38;;
75417;SDS011;63997;52.112;5.420;2023-02-21T16:23:39;7.60;;;4.17;;
75417;SDS011;63997;52.112;5.420;2023-02-21T16:28:38;12.32;;;5.13;;
75417;SDS011;63997;52.112;5.420;2023-02-21T16:31:06;11.93;;;5.32;;
75417;SDS011;63997;52.112;5.420;2023-02-21T16:33:34;11.13;;;4.68;;
75417;SDS011;63997;52.112;5.420;2023-02-21T16:36:08;8.93;;;5.13;;
75417;SDS011;63997;52.112;5.420;2023-02-21T16:38:43;10.18;;;5.20;;
75417;SDS011;63997;52.112;5.420;2023-02-21T16:41:11;10.85;;;5.82;;
75417;SDS011;63997;52.112;5.420;2023-02-21T16:43:41;11.35;;;5.25;;
75417;SDS011;63997;52.112;5.420;2023-02-21T16:46:07;10.80;;;4.97;;
75417;SDS011;63997;52.112;5.420;2023-02-21T16:48:34;9.57;;;4.90;;
75417;SDS011;63997;52.112;5.420;2023-02-21T16:51:02;11.02;;;5.47;;
75417;SDS011;63997;52.112;5.420;2023-02-21T16:53:33;11.65;;;6.18;;
75417;SDS011;63997;52.112;5.420;2023-02-21T16:56:00;12.40;;;5.32;;
75417;SDS011;63997;52.112;5.420;2023-02-21T16:58:29;9.57;;;5.18;;
75417;SDS011;63997;52.112;5.420;2023-02-21T17:00:59;11.43;;;5.73;;
75417;SDS011;63997;52.112;5.420;2023-02-21T17:03:28;10.38;;;5.32;;
75417;SDS011;63997;52.112;5.420;2023-02-21T17:05:55;10.07;;;5.40;;
75417;SDS011;63997;52.112;5.420;2023-02-21T17:08:23;11.60;;;6.13;;
75417;SDS011;63997;52.112;5.420;2023-02-21T17:10:50;9.98;;;5.28;;
75417;SDS011;63997;52.112;5.420;2023-02-21T17:13:17;10.47;;;5.80;;
75417;SDS011;63997;52.112;5.420;2023-02-21T17:15:43;9.43;;;5.38;;
75417;SDS011;63997;52.112;5.420;2023-02-21T17:18:10;10.27;;;5.53;;
75417;SDS011;63997;52.112;5.420;2023-02-21T17:20:36;12.60;;;6.20;;
75417;SDS011;63997;52.112;5.420;2023-02-21T17:23:03;10.43;;;6.10;;
75417;SDS011;63997;52.112;5.420;2023-02-21T17:25:29;11.13;;;6.67;;
75417;SDS011;63997;52.112;5.420;2023-02-21T17:27:56;11.55;;;5.68;;
75417;SDS011;63997;52.112;5.420;2023-02-21T17:30:23;9.02;;;5.10;;
75417;SDS011;63997;52.112;5.420;2023-02-21T17:32:51;14.23;;;6.05;;
75417;SDS011;63997;52.112;5.420;2023-02-21T17:35:18;12.18;;;5.90;;
75417;SDS011;63997;52.112;5.420;2023-02-21T17:37:47;13.90;;;6.20;;
75417;SDS011;63997;52.112;5.420;2023-02-21T17:40:15;12.95;;;6.30;;
75417;SDS011;63997;52.112;5.420;2023-02-21T17:42:44;12.30;;;6.03;;
75417;SDS011;63997;52.112;5.420;2023-02-21T17:45:11;11.15;;;5.93;;
75417;SDS011;63997;52.112;5.420;2023-02-21T17:47:38;13.60;;;6.18;;